Time;durP1;ratioP1;P1;durP2;ratioP2;P2;SDS_P1;SDS_P2;PMS_P1;PMS_P2;Temp;Humidity;BMP_temperature;BMP_pressure;BME280_temperature;BME280_humidity;BME280_pressure;Samples;Min_cycle;Max_cycle;Signal;HPM_P1;HPM_P2
2022/05/30 00:00:55;;;;;;;;;;;;;;;8.87;100.00;101381.03;2614589;36;20416;-59
2022/05/30 00:03:23;;;;;;;;;;;;;;;8.87;100.00;101378.34;2614656;36;20339;-58
2022/05/30 00:05:53;;;;;;;;;;;;;;;8.91;100.00;101382.53;2615265;31;20463;-60
2022/05/30 00:08:24;;;;;;;;;;;;;;;8.94;100.00;101390.34;2612819;36;20082;-57
2022/05/30 00:10:52;;;;;;;;;;;;;;;8.89;100.00;101384.44;2614698;36;20032;-58
2022/05/30 00:13:20;;;;;;;;;;;;;;;8.86;100.00;101384.66;2614201;36;19981;-58
2022/05/30 00:15:48;;;;;;;;;;;;;;;8.83;100.00;101379.53;2614865;31;20038;-58
2022/05/30 00:18:16;;;;;;;;;;;;;;;8.84;100.00;101390.16;2613933;36;20038;-58
2022/05/30 00:20:45;;;;;;;;;;;;;;;8.78;100.00;101387.94;2614691;36;20066;-58
2022/05/30 00:23:14;;;;;;;;;;;;;;;8.85;100.00;101382.94;2614367;31;19950;-59
2022/05/30 00:25:47;;;;;;;;;;;;;;;8.76;100.00;101379.97;2614242;36;20854;-62
2022/05/30 00:28:18;;;;;;;;;;;;;;;8.82;100.00;101378.69;2614295;31;20086;-57
2022/05/30 00:30:46;;;;;;;;;;;;;;;8.83;100.00;101387.59;2614620;36;19946;-62
2022/05/30 00:33:14;;;;;;;;;;;;;;;8.90;100.00;101392.38;2614001;36;19954;-59
2022/05/30 00:35:43;;;;;;;;;;;;;;;8.94;100.00;101377.78;2614378;36;20036;-58
2022/05/30 00:38:11;;;;;;;;;;;;;;;8.91;100.00;101379.84;2631444;36;20028;-58
2022/05/30 00:40:40;;;;;;;;;;;;;;;9.04;100.00;101371.72;2615480;31;20411;-61
2022/05/30 00:43:23;;;;;;;;;;;;;;;9.12;100.00;101375.56;2614313;36;20003;-62
2022/05/30 00:45:55;;;;;;;;;;;;;;;9.08;100.00;101368.72;2614465;36;20155;-58
2022/05/30 00:48:25;;;;;;;;;;;;;;;9.02;100.00;101361.09;2613480;36;19954;-55
2022/05/30 00:50:54;;;;;;;;;;;;;;;9.01;100.00;101362.09;2614087;36;20026;-58
2022/05/30 00:53:23;;;;;;;;;;;;;;;8.94;100.00;101360.81;2613546;36;20602;-58
2022/05/30 00:55:51;;;;;;;;;;;;;;;9.01;100.00;101355.84;2613471;36;19961;-64
2022/05/30 00:58:21;;;;;;;;;;;;;;;9.04;100.00;101361.84;2613397;36;20026;-58
2022/05/30 01:00:49;;;;;;;;;;;;;;;9.09;100.00;101359.66;2613980;36;20046;-60
2022/05/30 01:08:41;;;;;;;;;;;;;;;9.15;100.00;101377.16;2613463;36;20550;-60
2022/05/30 01:11:09;;;;;;;;;;;;;;;9.00;100.00;101365.72;2613154;36;20102;-58
2022/05/30 01:13:40;;;;;;;;;;;;;;;9.00;100.00;101368.41;2613478;31;20076;-58
2022/05/30 01:16:08;;;;;;;;;;;;;;;9.02;100.00;101368.31;2614370;36;20387;-56
2022/05/30 01:18:41;;;;;;;;;;;;;;;9.10;100.00;101369.44;2613315;36;20026;-61
2022/05/30 01:21:27;;;;;;;;;;;;;;;9.11;100.00;101376.53;2614173;36;19970;-56
2022/05/30 01:24:02;;;;;;;;;;;;;;;9.01;100.00;101367.44;2612970;36;19982;-57
2022/05/30 01:26:36;;;;;;;;;;;;;;;9.02;100.00;101358.41;2612912;36;20057;-58
2022/05/30 01:29:10;;;;;;;;;;;;;;;8.96;100.00;101364.25;2613333;36;20428;-54
2022/05/30 01:31:38;;;;;;;;;;;;;;;8.89;100.00;101353.09;2613943;36;20428;-57
2022/05/30 01:34:06;;;;;;;;;;;;;;;8.95;100.00;101351.78;2613948;31;20046;-54
2022/05/30 01:36:35;;;;;;;;;;;;;;;9.09;100.00;101353.44;2614387;36;20059;-55
2022/05/30 01:39:03;;;;;;;;;;;;;;;9.01;100.00;101345.97;2613024;36;19963;-54
2022/05/30 01:41:31;;;;;;;;;;;;;;;8.87;100.00;101348.81;2613731;36;19957;-55
2022/05/30 01:43:59;;;;;;;;;;;;;;;8.83;100.00;101345.47;2614501;36;20435;-54
2022/05/30 01:46:29;;;;;;;;;;;;;;;8.79;100.00;101340.47;2613116;36;19955;-58
2022/05/30 01:48:57;;;;;;;;;;;;;;;8.69;100.00;101343.81;2613554;36;19979;-54
2022/05/30 01:51:25;;;;;;;;;;;;;;;8.55;100.00;101341.28;2614404;36;20539;-55
2022/05/30 01:53:55;;;;;;;;;;;;;;;8.37;100.00;101340.75;2613283;36;20053;-55
2022/05/30 01:56:24;;;;;;;;;;;;;;;8.33;100.00;101342.81;2613618;36;20220;-61
2022/05/30 01:58:52;;;;;;;;;;;;;;;8.32;100.00;101346.44;2613411;36;20452;-55
2022/05/30 02:01:21;;;;;;;;;;;;;;;8.34;100.00;101347.19;2613433;36;20471;-55
2022/05/30 02:03:53;;;;;;;;;;;;;;;8.24;100.00;101344.31;2613834;31;20530;-57
2022/05/30 02:06:23;;;;;;;;;;;;;;;8.27;100.00;101350.44;2612498;31;20038;-55
2022/05/30 02:08:51;;;;;;;;;;;;;;;8.46;100.00;101339.28;2613905;36;20007;-57
2022/05/30 02:11:22;;;;;;;;;;;;;;;8.53;100.00;101340.53;2614408;39;20425;-55
2022/05/30 02:13:50;;;;;;;;;;;;;;;8.50;100.00;101338.09;2613438;36;20054;-56
2022/05/30 02:19:03;;;;;;;;;;;;;;;8.61;100.00;101350.72;2613758;36;19954;-57
2022/05/30 02:21:32;;;;;;;;;;;;;;;8.70;100.00;101342.88;2614010;36;20030;-57
2022/05/30 02:24:01;;;;;;;;;;;;;;;8.72;100.00;101345.44;2612591;36;19954;-57
2022/05/30 02:26:29;;;;;;;;;;;;;;;8.77;100.00;101341.44;2613772;36;19946;-58
2022/05/30 02:28:57;;;;;;;;;;;;;;;8.58;100.00;101341.06;2614034;36;19950;-57
2022/05/30 02:31:26;;;;;;;;;;;;;;;8.68;100.00;101343.94;2614364;36;20751;-57
2022/05/30 02:36:44;;;;;;;;;;;;;;;8.54;100.00;101336.91;2613515;36;20456;-55
2022/05/30 02:39:13;;;;;;;;;;;;;;;8.46;100.00;101336.59;2613509;36;19950;-58
2022/05/30 02:41:41;;;;;;;;;;;;;;;8.42;100.00;101334.09;2613193;36;20554;-55
2022/05/30 02:44:10;;;;;;;;;;;;;;;8.45;100.00;101329.50;2614087;31;20475;-55
2022/05/30 02:46:38;;;;;;;;;;;;;;;8.46;100.00;101333.91;2613512;36;19951;-57
2022/05/30 02:49:08;;;;;;;;;;;;;;;8.46;100.00;101326.72;2613624;36;19959;-56
2022/05/30 02:51:38;;;;;;;;;;;;;;;8.46;100.00;101331.22;2614036;36;20057;-56
2022/05/30 02:54:07;;;;;;;;;;;;;;;8.50;100.00;101330.03;2613611;36;19946;-58
2022/05/30 02:56:35;;;;;;;;;;;;;;;8.48;100.00;101326.59;2614498;36;20443;-57
2022/05/30 02:59:03;;;;;;;;;;;;;;;8.50;100.00;101330.03;2615044;36;20030;-58
2022/05/30 03:01:32;;;;;;;;;;;;;;;8.40;100.00;101335.16;2614256;31;20021;-53
2022/05/30 03:04:04;;;;;;;;;;;;;;;8.28;100.00;101328.84;2613902;36;19950;-58
2022/05/30 03:06:32;;;;;;;;;;;;;;;8.39;100.00;101326.28;2613931;36;20009;-58
2022/05/30 03:09:03;;;;;;;;;;;;;;;8.23;100.00;101334.56;2613576;36;20067;-56
2022/05/30 03:11:31;;;;;;;;;;;;;;;8.16;100.00;101335.09;2613734;31;19981;-61
2022/05/30 03:13:59;;;;;;;;;;;;;;;8.22;100.00;101337.34;2613693;36;19977;-58
2022/05/30 03:16:27;;;;;;;;;;;;;;;8.18;100.00;101338.53;2613418;31;19989;-55
2022/05/30 03:18:56;;;;;;;;;;;;;;;8.14;100.00;101337.91;2613334;31;20026;-55
2022/05/30 03:21:24;;;;;;;;;;;;;;;7.91;100.00;101342.19;2614018;36;19958;-57
2022/05/30 03:23:53;;;;;;;;;;;;;;;7.92;100.00;101335.88;2612248;36;20058;-57
2022/05/30 03:26:23;;;;;;;;;;;;;;;7.94;100.00;101328.56;2613247;31;20429;-55
2022/05/30 03:28:51;;;;;;;;;;;;;;;7.80;100.00;101340.25;2613859;36;20057;-58
2022/05/30 03:31:22;;;;;;;;;;;;;;;7.60;100.00;101333.59;2613895;36;20026;-58
2022/05/30 03:33:50;;;;;;;;;;;;;;;7.68;100.00;101330.38;2630515;31;20424;-57
2022/05/30 03:36:20;;;;;;;;;;;;;;;7.68;100.00;101333.06;2613143;36;19957;-57
2022/05/30 03:38:48;;;;;;;;;;;;;;;7.59;100.00;101334.53;2612859;36;19952;-62
2022/05/30 03:41:16;;;;;;;;;;;;;;;7.57;100.00;101324.88;2613874;36;20082;-57
2022/05/30 03:43:47;;;;;;;;;;;;;;;7.57;100.00;101332.94;2613849;36;20038;-53
2022/05/30 03:46:15;;;;;;;;;;;;;;;7.42;100.00;101337.50;2613004;36;20038;-58
2022/05/30 03:48:43;;;;;;;;;;;;;;;7.29;100.00;101338.34;2613767;36;20038;-54
2022/05/30 03:51:14;;;;;;;;;;;;;;;7.42;100.00;101337.50;2613027;36;19958;-58
2022/05/30 03:53:42;;;;;;;;;;;;;;;7.39;100.00;101343.94;2613715;36;20436;-58
2022/05/30 03:56:11;;;;;;;;;;;;;;;7.11;100.00;101340.44;2612961;36;20070;-57
2022/05/30 03:58:39;;;;;;;;;;;;;;;7.25;100.00;101336.84;2613581;31;19947;-57
2022/05/30 04:01:10;;;;;;;;;;;;;;;7.15;100.00;101325.03;2613824;36;20053;-58
2022/05/30 04:03:39;;;;;;;;;;;;;;;7.18;100.00;101327.50;2612987;36;19987;-63
2022/05/30 04:06:07;;;;;;;;;;;;;;;7.19;100.00;101329.22;2612821;31;19954;-58
2022/05/30 04:08:36;;;;;;;;;;;;;;;7.19;100.00;101327.38;2612642;36;19951;-56
2022/05/30 04:11:04;;;;;;;;;;;;;;;7.22;100.00;101323.66;2613698;36;20078;-58
2022/05/30 04:13:32;;;;;;;;;;;;;;;7.37;100.00;101325.28;2613776;36;19974;-58
2022/05/30 04:16:08;;;;;;;;;;;;;;;7.32;100.00;101322.06;2612880;36;20050;-59
2022/05/30 04:18:42;;;;;;;;;;;;;;;7.33;100.00;101328.28;2630998;36;20026;-58
2022/05/30 04:21:10;;;;;;;;;;;;;;;7.43;100.00;101324.00;2613623;36;19946;-58
2022/05/30 04:23:40;;;;;;;;;;;;;;;7.36;100.00;101328.94;2612177;31;20054;-60
2022/05/30 04:26:09;;;;;;;;;;;;;;;7.37;100.00;101327.13;2612919;36;19950;-58
2022/05/30 04:28:40;;;;;;;;;;;;;;;7.43;100.00;101325.84;2612514;36;20485;-59
2022/05/30 04:31:11;;;;;;;;;;;;;;;7.44;100.00;101324.91;2613636;36;20586;-58
2022/05/30 04:33:42;;;;;;;;;;;;;;;7.56;100.00;101329.41;2613763;36;20435;-58
2022/05/30 04:36:11;;;;;;;;;;;;;;;7.63;100.00;101335.22;2614078;31;20423;-58
2022/05/30 04:38:40;;;;;;;;;;;;;;;7.74;100.00;101321.91;2613253;36;19950;-58
2022/05/30 04:41:10;;;;;;;;;;;;;;;7.89;100.00;101328.03;2614492;36;20037;-58
2022/05/30 04:43:38;;;;;;;;;;;;;;;7.95;100.00;101324.06;2613867;36;20502;-58
2022/05/30 04:46:07;;;;;;;;;;;;;;;7.97;100.00;101328.34;2613487;36;19959;-60
2022/05/30 04:48:36;;;;;;;;;;;;;;;8.07;100.00;101329.41;2614211;36;19977;-58
2022/05/30 04:51:07;;;;;;;;;;;;;;;8.03;100.00;101332.44;2614164;36;20041;-59
2022/05/30 04:53:35;;;;;;;;;;;;;;;8.07;100.00;101331.25;2613599;36;20435;-58
2022/05/30 04:56:03;;;;;;;;;;;;;;;8.46;100.00;101323.19;2614195;31;20012;-57
2022/05/30 04:58:33;;;;;;;;;;;;;;;8.38;100.00;101326.38;2614196;36;20065;-59
2022/05/30 05:01:01;;;;;;;;;;;;;;;8.40;100.00;101336.00;2614070;36;19958;-58
2022/05/30 05:03:30;;;;;;;;;;;;;;;8.25;100.00;101332.63;2613935;36;19950;-58
2022/05/30 05:06:02;;;;;;;;;;;;;;;8.31;100.00;101342.03;2614248;36;20689;-58
2022/05/30 05:08:37;;;;;;;;;;;;;;;8.29;100.00;101338.63;2614127;31;19985;-64
2022/05/30 05:11:07;;;;;;;;;;;;;;;8.27;100.00;101340.53;2614226;36;19970;-59
2022/05/30 05:13:35;;;;;;;;;;;;;;;8.12;100.00;101338.97;2613837;36;20033;-56
2022/05/30 05:16:03;;;;;;;;;;;;;;;8.11;100.00;101340.78;2612180;36;20066;-60
2022/05/30 05:18:31;;;;;;;;;;;;;;;8.12;100.00;101341.66;2612055;36;20603;-58
2022/05/30 05:20:59;;;;;;;;;;;;;;;8.20;100.00;101342.81;2612601;36;20645;-58
2022/05/30 05:23:27;;;;;;;;;;;;;;;8.13;100.00;101344.22;2613159;31;20061;-58
2022/05/30 05:25:58;;;;;;;;;;;;;;;8.17;100.00;101337.69;2612846;36;20082;-64
2022/05/30 05:28:26;;;;;;;;;;;;;;;8.17;100.00;101344.84;2613192;36;20093;-58
2022/05/30 05:30:54;;;;;;;;;;;;;;;8.22;100.00;101342.72;2613635;36;20462;-58
2022/05/30 05:33:22;;;;;;;;;;;;;;;8.26;100.00;101344.22;2613554;36;19967;-59
2022/05/30 05:35:50;;;;;;;;;;;;;;;8.41;100.00;101337.75;2613860;36;20054;-61
2022/05/30 05:38:18;;;;;;;;;;;;;;;8.54;100.00;101347.63;2611740;36;19954;-60
2022/05/30 05:40:47;;;;;;;;;;;;;;;8.74;100.00;101351.53;2613904;36;20066;-58
2022/05/30 05:43:17;;;;;;;;;;;;;;;8.80;100.00;101352.91;2613257;36;19980;-60
2022/05/30 05:45:46;;;;;;;;;;;;;;;8.89;100.00;101352.22;2613667;36;20058;-58
2022/05/30 05:48:15;;;;;;;;;;;;;;;9.10;100.00;101350.66;2612199;36;21639;-59
2022/05/30 05:50:43;;;;;;;;;;;;;;;9.16;100.00;101345.78;2612662;36;19992;-58
2022/05/30 05:53:13;;;;;;;;;;;;;;;9.39;100.00;101347.63;2612295;31;20551;-61
2022/05/30 05:55:41;;;;;;;;;;;;;;;9.39;100.00;101344.94;2613086;36;19951;-59
2022/05/30 05:58:09;;;;;;;;;;;;;;;9.54;100.00;101353.66;2612940;36;20065;-62
2022/05/30 06:00:40;;;;;;;;;;;;;;;9.58;100.00;101347.03;2612704;36;20058;-61
2022/05/30 06:03:08;;;;;;;;;;;;;;;9.78;100.00;101350.88;2613417;36;20006;-58
2022/05/30 06:05:36;;;;;;;;;;;;;;;10.25;100.00;101342.75;2613677;36;20062;-58
2022/05/30 06:08:04;;;;;;;;;;;;;;;10.34;100.00;101341.19;2612803;36;20062;-58
2022/05/30 06:10:33;;;;;;;;;;;;;;;11.01;100.00;101333.97;2613346;36;20042;-58
2022/05/30 06:13:01;;;;;;;;;;;;;;;11.18;100.00;101328.03;2613884;36;19958;-60
2022/05/30 06:15:29;;;;;;;;;;;;;;;10.84;100.00;101324.63;2612987;36;19955;-58
2022/05/30 06:18:00;;;;;;;;;;;;;;;10.75;100.00;101328.91;2613740;31;20034;-57
2022/05/30 06:20:28;;;;;;;;;;;;;;;10.61;100.00;101329.19;2613251;31;20042;-58
2022/05/30 06:22:56;;;;;;;;;;;;;;;10.82;100.00;101337.34;2611929;36;19959;-60
2022/05/30 06:25:24;;;;;;;;;;;;;;;10.82;100.00;101338.22;2613380;36;20355;-58
2022/05/30 06:27:52;;;;;;;;;;;;;;;10.80;100.00;101340.16;2613168;36;20014;-61
2022/05/30 06:30:20;;;;;;;;;;;;;;;10.30;100.00;101340.53;2612022;36;19974;-58
2022/05/30 06:32:48;;;;;;;;;;;;;;;10.30;100.00;101340.53;2610641;36;20026;-58
2022/05/30 06:35:18;;;;;;;;;;;;;;;10.50;100.00;101347.06;2612203;36;19954;-58
2022/05/30 06:37:46;;;;;;;;;;;;;;;10.31;100.00;101336.88;2613534;36;20402;-58
2022/05/30 06:40:17;;;;;;;;;;;;;;;10.30;100.00;101345.06;2615034;36;20037;-59
2022/05/30 06:42:45;;;;;;;;;;;;;;;10.37;100.00;101349.03;2614828;36;19970;-58
2022/05/30 06:45:13;;;;;;;;;;;;;;;10.32;100.00;101356.56;2609984;36;20399;-58
2022/05/30 06:47:41;;;;;;;;;;;;;;;10.15;100.00;101361.44;2604740;36;19958;-58
2022/05/30 06:50:09;;;;;;;;;;;;;;;10.15;100.00;101363.28;2611988;36;19970;-60
2022/05/30 06:52:40;;;;;;;;;;;;;;;10.16;100.00;101365.88;2612675;36;20563;-59
2022/05/30 06:55:09;;;;;;;;;;;;;;;10.21;100.00;101368.19;2613100;36;19950;-58
2022/05/30 07:00:17;;;;;;;;;;;;;;;10.26;100.00;101366.00;2610814;36;20077;-58
2022/05/30 07:02:45;;;;;;;;;;;;;;;10.47;100.00;101368.84;2612437;36;20581;-61
2022/05/30 07:05:17;;;;;;;;;;;;;;;10.44;100.00;101369.09;2613161;36;20442;-58
2022/05/30 07:07:48;;;;;;;;;;;;;;;10.40;100.00;101364.06;2612170;36;20113;-58
2022/05/30 07:10:16;;;;;;;;;;;;;;;10.67;100.00;101364.56;2613419;36;19950;-59
2022/05/30 07:12:44;;;;;;;;;;;;;;;10.44;100.00;101363.69;2613542;31;19946;-57
2022/05/30 07:15:13;;;;;;;;;;;;;;;10.83;100.00;101365.97;2613203;31;19946;-58
2022/05/30 07:17:41;;;;;;;;;;;;;;;10.67;100.00;101358.28;2612255;36;20358;-61
2022/05/30 07:20:09;;;;;;;;;;;;;;;10.87;100.00;101359.38;2611614;36;20050;-59
2022/05/30 07:22:37;;;;;;;;;;;;;;;10.71;100.00;101354.38;2612263;31;20611;-59
2022/05/30 07:25:09;;;;;;;;;;;;;;;10.90;100.00;101356.41;2613143;31;19960;-57
2022/05/30 07:27:37;;;;;;;;;;;;;;;10.94;100.00;101365.09;2612703;36;20054;-58
2022/05/30 07:30:05;;;;;;;;;;;;;;;11.14;100.00;101367.00;2610977;36;19951;-61
2022/05/30 07:32:34;;;;;;;;;;;;;;;10.80;100.00;101355.47;2613368;31;20082;-58
2022/05/30 07:35:02;;;;;;;;;;;;;;;11.13;100.00;101365.31;2612829;36;19950;-58
2022/05/30 07:37:30;;;;;;;;;;;;;;;10.85;100.00;101366.69;2611752;36;19954;-58
2022/05/30 07:39:58;;;;;;;;;;;;;;;10.96;100.00;101361.28;2611024;36;19951;-59
2022/05/30 07:42:29;;;;;;;;;;;;;;;11.20;100.00;101358.44;2611713;36;20445;-59
2022/05/30 07:44:57;;;;;;;;;;;;;;;11.27;100.00;101355.22;2611788;36;20046;-58
2022/05/30 07:47:27;;;;;;;;;;;;;;;11.22;100.00;101356.44;2603779;36;20039;-59
2022/05/30 07:50:02;;;;;;;;;;;;;;;11.74;100.00;101353.00;2611936;36;19954;-60
2022/05/30 07:52:30;;;;;;;;;;;;;;;12.15;100.00;101345.91;2606652;36;19946;-58
2022/05/30 07:54:59;;;;;;;;;;;;;;;12.91;100.00;101348.16;2611998;36;19955;-58
2022/05/30 08:00:10;;;;;;;;;;;;;;;13.71;100.00;101342.66;2612841;31;20591;-58
2022/05/30 08:02:38;;;;;;;;;;;;;;;12.70;100.00;101334.72;2613475;36;20049;-58
2022/05/30 08:05:07;;;;;;;;;;;;;;;13.14;100.00;101340.63;2614041;36;20042;-58
2022/05/30 08:07:35;;;;;;;;;;;;;;;12.94;100.00;101339.78;2614071;36;20034;-58
2022/05/30 08:10:03;;;;;;;;;;;;;;;12.88;100.00;101348.44;2614266;36;19939;-63
2022/05/30 08:12:34;;;;;;;;;;;;;;;12.47;100.00;101355.72;2613923;36;19950;-58
2022/05/30 08:15:02;;;;;;;;;;;;;;;12.70;100.00;101352.78;2613713;31;20034;-58
2022/05/30 08:17:30;;;;;;;;;;;;;;;12.72;100.00;101353.50;2613448;36;19958;-59
2022/05/30 08:19:59;;;;;;;;;;;;;;;12.47;100.00;101355.72;2613301;36;20079;-58
2022/05/30 08:22:27;;;;;;;;;;;;;;;12.54;100.00;101347.91;2613956;36;19950;-58
2022/05/30 08:24:56;;;;;;;;;;;;;;;12.49;100.00;101353.72;2614095;36;20077;-59
2022/05/30 08:27:24;;;;;;;;;;;;;;;12.86;100.00;101354.97;2613798;36;19958;-58
2022/05/30 08:29:54;;;;;;;;;;;;;;;12.69;100.00;101348.38;2613957;31;20138;-58
2022/05/30 08:32:23;;;;;;;;;;;;;;;12.89;100.00;101349.28;2615076;31;19954;-62
2022/05/30 08:34:51;;;;;;;;;;;;;;;13.15;100.00;101350.44;2613741;36;19947;-58
2022/05/30 08:37:19;;;;;;;;;;;;;;;13.51;100.00;101352.63;2613267;36;19981;-58
2022/05/30 08:42:29;;;;;;;;;;;;;;;13.96;100.00;101354.69;2613488;31;19993;-58
2022/05/30 08:45:00;;;;;;;;;;;;;;;13.71;100.00;101349.91;2613516;36;19963;-58
2022/05/30 08:47:38;;;;;;;;;;;;;;;13.41;100.00;101357.19;2613248;36;20034;-58
2022/05/30 08:50:11;;;;;;;;;;;;;;;12.95;100.00;101360.38;2613327;36;19951;-55
2022/05/30 08:52:45;;;;;;;;;;;;;;;13.30;100.00;101358.16;2607098;36;20042;-57
2022/05/30 08:55:20;;;;;;;;;;;;;;;13.29;100.00;101357.31;2614060;36;20041;-58
2022/05/30 08:57:53;;;;;;;;;;;;;;;13.15;100.00;101355.00;2613870;36;19977;-58
2022/05/30 09:00:29;;;;;;;;;;;;;;;13.27;100.00;101361.97;2606278;36;19973;-58
2022/05/30 09:03:00;;;;;;;;;;;;;;;13.28;100.00;101361.00;2613314;36;19995;-58
2022/05/30 09:05:31;;;;;;;;;;;;;;;13.76;100.00;101359.28;2612892;36;20057;-59
2022/05/30 09:08:04;;;;;;;;;;;;;;;13.95;100.00;101363.81;2613155;36;19947;-57
2022/05/30 09:10:34;;;;;;;;;;;;;;;13.91;100.00;101354.25;2613811;36;20061;-58
2022/05/30 09:13:06;;;;;;;;;;;;;;;14.57;100.00;101347.03;2613317;36;19973;-56
2022/05/30 09:15:40;;;;;;;;;;;;;;;14.74;100.00;101347.28;2613314;36;20058;-58
2022/05/30 09:18:10;;;;;;;;;;;;;;;14.25;100.00;101356.47;2613586;36;20054;-60
2022/05/30 09:20:41;;;;;;;;;;;;;;;13.99;100.00;101362.50;2612868;36;19977;-58
2022/05/30 09:23:10;;;;;;;;;;;;;;;14.04;100.00;101358.53;2613645;36;20328;-58
2022/05/30 09:28:22;;;;;;;;;;;;;;;14.54;100.00;101355.47;2613081;36;19958;-58
2022/05/30 09:30:56;;;;;;;;;;;;;;;14.74;100.00;101347.28;2613545;36;20084;-60
2022/05/30 09:33:30;;;;;;;;;;;;;;;14.43;100.00;101347.53;2612904;36;20029;-56
2022/05/30 09:36:12;;;;;;;;;;;;;;;15.13;100.00;101342.44;2613942;36;19950;-59
2022/05/30 09:38:45;;;;;;;;;;;;;;;15.49;100.00;101353.31;2612217;36;20082;-58
2022/05/30 09:41:18;;;;;;;;;;;;;;;15.31;100.00;101349.75;2613463;36;19947;-58
2022/05/30 09:43:50;;;;;;;;;;;;;;;15.53;100.00;101343.84;2613290;31;19989;-62
2022/05/30 09:46:22;;;;;;;;;;;;;;;15.61;100.00;101347.66;2612672;36;20042;-58
2022/05/30 09:49:04;;;;;;;;;;;;;;;15.32;100.00;101341.44;2612643;31;19985;-59
2022/05/30 09:51:33;;;;;;;;;;;;;;;15.51;100.00;101343.13;2613302;36;19951;-58
2022/05/30 09:54:01;;;;;;;;;;;;;;;15.24;100.00;101338.69;2612821;36;20437;-58
2022/05/30 09:56:30;;;;;;;;;;;;;;;15.63;100.00;101332.88;2613160;36;19997;-61
2022/05/30 09:59:03;;;;;;;;;;;;;;;16.23;100.00;101340.28;2612928;36;19989;-59
2022/05/30 10:01:35;;;;;;;;;;;;;;;16.82;97.79;101334.91;2607216;36;20070;-59
2022/05/30 10:04:17;;;;;;;;;;;;;;;17.36;100.00;101344.56;2613964;36;20038;-59
2022/05/30 10:07:03;;;;;;;;;;;;;;;16.81;100.00;101344.09;2613346;36;20067;-62
2022/05/30 10:09:32;;;;;;;;;;;;;;;16.18;90.19;101347.19;2606099;36;19951;-60
2022/05/30 10:12:00;;;;;;;;;;;;;;;15.72;98.25;101353.69;2613621;36;19954;-59
2022/05/30 10:14:34;;;;;;;;;;;;;;;14.92;100.00;101359.00;2612915;36;19970;-64
2022/05/30 10:17:12;;;;;;;;;;;;;;;14.19;100.00;101354.34;2607376;36;19974;-60
2022/05/30 10:19:43;;;;;;;;;;;;;;;14.30;100.00;101362.28;2609224;36;19951;-61
2022/05/30 10:30:37;;;;;;;;;;;;;;;13.43;100.00;101374.97;2610694;36;19950;-59
2022/05/30 10:33:12;;;;;;;;;;;;;;;13.40;100.00;101380.66;2608678;31;20050;-59
2022/05/30 10:35:47;;;;;;;;;;;;;;;13.22;100.00;101377.78;2609921;36;21532;-59
2022/05/30 10:38:31;;;;;;;;;;;;;;;12.88;100.00;101383.56;2609335;36;19951;-63
2022/05/30 10:41:04;;;;;;;;;;;;;;;12.90;100.00;101386.13;2609278;36;19947;-60
2022/05/30 10:43:42;;;;;;;;;;;;;;;13.08;100.00;101383.59;2608837;36;20502;-62
2022/05/30 10:46:12;;;;;;;;;;;;;;;12.95;100.00;101381.97;2609006;36;20034;-61
2022/05/30 10:48:44;;;;;;;;;;;;;;;12.92;100.00;101381.41;2611005;36;19989;-58
2022/05/30 10:51:15;;;;;;;;;;;;;;;12.68;100.00;101387.19;2609349;31;20341;-58
2022/05/30 10:53:47;;;;;;;;;;;;;;;12.64;100.00;101388.44;2609517;36;20038;-63
2022/05/30 10:56:18;;;;;;;;;;;;;;;12.67;100.00;101389.03;2611573;36;19973;-58
2022/05/30 10:58:49;;;;;;;;;;;;;;;12.59;100.00;101389.72;2611697;36;20085;-58
2022/05/30 11:01:23;;;;;;;;;;;;;;;12.73;100.00;101399.28;2611378;31;19954;-58
2022/05/30 11:04:01;;;;;;;;;;;;;;;12.57;100.00;101394.41;2610520;36;19954;-58
2022/05/30 11:06:32;;;;;;;;;;;;;;;12.56;100.00;101397.25;2610815;36;20026;-61
2022/05/30 11:09:02;;;;;;;;;;;;;;;12.73;100.00;101396.56;2605134;31;19956;-59
2022/05/30 11:11:34;;;;;;;;;;;;;;;12.72;100.00;101394.00;2605899;36;19946;-63
2022/05/30 11:14:05;;;;;;;;;;;;;;;12.72;100.00;101392.19;2611790;36;20347;-61
2022/05/30 11:16:38;;;;;;;;;;;;;;;12.73;100.00;101401.13;2612725;36;20033;-62
2022/05/30 11:19:11;;;;;;;;;;;;;;;12.75;100.00;101396.44;2612564;36;20106;-58
2022/05/30 11:21:42;;;;;;;;;;;;;;;12.54;100.00;101402.75;2613683;36;20450;-59
2022/05/30 11:24:11;;;;;;;;;;;;;;;12.65;100.00;101398.25;2611815;31;21132;-60
2022/05/30 11:26:54;;;;;;;;;;;;;;;12.61;100.00;101413.88;2613051;31;19990;-58
2022/05/30 11:29:33;;;;;;;;;;;;;;;12.54;100.00;101410.00;2611648;36;20070;-60
2022/05/30 11:32:04;;;;;;;;;;;;;;;12.76;100.00;101411.66;2613025;36;20041;-62
2022/05/30 11:34:43;;;;;;;;;;;;;;;12.77;100.00;101407.97;2613653;36;20045;-61
2022/05/30 11:37:23;;;;;;;;;;;;;;;12.82;100.00;101407.56;2612502;36;20649;-59
2022/05/30 11:39:59;;;;;;;;;;;;;;;12.71;100.00;101411.22;2611992;31;20423;-61
2022/05/30 11:42:31;;;;;;;;;;;;;;;13.10;100.00;101406.78;2611205;36;19951;-58
2022/05/30 11:45:00;;;;;;;;;;;;;;;13.13;100.00;101401.09;2611237;36;20066;-58
2022/05/30 11:47:41;;;;;;;;;;;;;;;13.12;100.00;101415.59;2612349;36;20555;-59
2022/05/30 11:50:20;;;;;;;;;;;;;;;13.29;100.00;101413.19;2611848;36;20524;-63
2022/05/30 11:53:02;;;;;;;;;;;;;;;13.36;100.00;101414.38;2611242;36;20030;-58
2022/05/30 11:55:41;;;;;;;;;;;;;;;13.35;100.00;101409.97;2612448;36;20026;-62
2022/05/30 11:58:12;;;;;;;;;;;;;;;13.79;100.00;101407.69;2611706;36;19981;-58
2022/05/30 12:00:43;;;;;;;;;;;;;;;14.15;100.00;101409.78;2613714;31;20086;-59
2022/05/30 12:03:36;;;;;;;;;;;;;;;14.04;100.00;101412.66;2611698;36;19947;-59
2022/05/30 12:06:14;;;;;;;;;;;;;;;14.48;100.00;101412.97;2612808;31;20041;-60
2022/05/30 12:08:49;;;;;;;;;;;;;;;14.18;100.00;101412.19;2612381;36;20066;-59
2022/05/30 12:11:24;;;;;;;;;;;;;;;14.17;100.00;101405.91;2607615;36;19961;-58
2022/05/30 12:14:01;;;;;;;;;;;;;;;14.63;100.00;101408.78;2610100;36;20500;-62
2022/05/30 12:16:42;;;;;;;;;;;;;;;14.29;100.00;101408.47;2604532;36;20084;-59
2022/05/30 12:24:41;;;;;;;;;;;;;;;14.66;100.00;101411.22;2612641;36;19954;-60
2022/05/30 12:27:10;;;;;;;;;;;;;;;15.18;100.00;101398.91;2611193;36;20344;-60
2022/05/30 12:30:04;;;;;;;;;;;;;;;15.33;100.00;101394.69;2611190;36;19981;-59
2022/05/30 12:32:40;;;;;;;;;;;;;;;15.31;100.00;101399.44;2609447;36;20030;-60
2022/05/30 12:35:21;;;;;;;;;;;;;;;15.86;100.00;101397.56;2610357;36;20460;-60
2022/05/30 12:37:53;;;;;;;;;;;;;;;15.51;100.00;101396.56;2612274;36;19946;-58
2022/05/30 12:40:36;;;;;;;;;;;;;;;15.75;100.00;101407.63;2611737;31;20050;-60
2022/05/30 12:43:06;;;;;;;;;;;;;;;16.08;100.00;101397.03;2612523;36;19954;-61
2022/05/30 12:45:40;;;;;;;;;;;;;;;16.61;100.00;101399.72;2612811;36;20042;-59
2022/05/30 12:48:17;;;;;;;;;;;;;;;17.92;100.00;101398.34;2611805;36;20046;-59
2022/05/30 12:50:47;;;;;;;;;;;;;;;18.56;93.67;101393.81;2612246;36;19947;-61
2022/05/30 12:53:17;;;;;;;;;;;;;;;18.93;83.15;101388.72;2612417;36;19950;-60
2022/05/30 12:55:46;;;;;;;;;;;;;;;18.18;77.49;101400.84;2613228;31;20426;-60
2022/05/30 12:58:15;;;;;;;;;;;;;;;18.88;71.93;101391.97;2613342;36;19961;-61
2022/05/30 13:01:01;;;;;;;;;;;;;;;19.64;76.19;101385.00;2613266;36;20070;-59
2022/05/30 13:03:46;;;;;;;;;;;;;;;19.93;76.86;101385.13;2613113;36;20559;-59
2022/05/30 13:06:18;;;;;;;;;;;;;;;18.81;71.59;101390.13;2614077;36;19958;-59
2022/05/30 13:09:07;;;;;;;;;;;;;;;19.02;79.82;101382.19;2612079;36;19950;-59
2022/05/30 13:11:58;;;;;;;;;;;;;;;19.08;76.70;101383.38;2612602;36;20085;-63
2022/05/30 13:14:34;;;;;;;;;;;;;;;19.24;72.09;101380.53;2607579;36;19969;-59
2022/05/30 13:17:05;;;;;;;;;;;;;;;18.90;71.12;101384.47;2613875;36;19985;-61
2022/05/30 13:19:33;;;;;;;;;;;;;;;17.51;77.67;101386.41;2613981;31;20404;-63
2022/05/30 13:22:01;;;;;;;;;;;;;;;17.68;87.20;101394.56;2613971;36;19951;-61
2022/05/30 13:24:30;;;;;;;;;;;;;;;17.52;84.29;101387.28;2606693;36;20471;-65
2022/05/30 13:27:02;;;;;;;;;;;;;;;17.13;98.98;101390.59;2613440;31;20363;-60